createdAt,value
2018-11-26T00:00:32.215Z,6.80
2018-11-26T00:03:00.216Z,6.90
2018-11-26T00:05:28.252Z,6.90
2018-11-26T00:08:12.935Z,6.90
2018-11-26T00:10:52.011Z,6.90
2018-11-26T00:13:19.921Z,6.90
2018-11-26T00:15:47.847Z,6.90
2018-11-26T00:18:15.746Z,6.90
2018-11-26T00:20:43.704Z,6.90
2018-11-26T00:23:11.581Z,6.90
2018-11-26T00:25:39.482Z,6.90
2018-11-26T00:28:07.520Z,7.00
2018-11-26T00:30:35.431Z,6.90
2018-11-26T00:33:03.348Z,6.90
2018-11-26T00:35:31.291Z,7.00
2018-11-26T00:37:59.194Z,6.90
2018-11-26T00:40:27.122Z,7.00
2018-11-26T00:42:55.063Z,7.00
2018-11-26T00:45:23.035Z,7.00
2018-11-26T00:47:50.929Z,7.00
2018-11-26T00:50:18.864Z,7.00
2018-11-26T00:52:46.907Z,7.00
2018-11-26T00:55:14.802Z,6.90
2018-11-26T00:57:42.752Z,7.00
2018-11-26T01:00:12.007Z,7.00
2018-11-26T01:02:39.929Z,7.00
2018-11-26T01:05:11.171Z,7.00
2018-11-26T01:07:39.100Z,7.00
2018-11-26T01:10:07.027Z,6.90
2018-11-26T01:12:34.964Z,6.90
2018-11-26T01:15:03.085Z,7.00
2018-11-26T01:17:30.988Z,7.00
2018-11-26T01:19:58.920Z,7.00
2018-11-26T01:22:26.866Z,6.90
2018-11-26T01:24:54.768Z,7.00
2018-11-26T01:27:22.697Z,7.00
2018-11-26T01:29:50.606Z,6.90
2018-11-26T01:32:18.586Z,6.90
2018-11-26T01:34:46.515Z,6.90
2018-11-26T01:37:14.440Z,7.00
2018-11-26T01:39:43.151Z,7.00
2018-11-26T01:42:11.108Z,6.90
2018-11-26T01:44:39.018Z,7.00
2018-11-26T01:47:06.932Z,6.90
2018-11-26T01:49:34.895Z,7.00
2018-11-26T01:52:02.803Z,7.00
2018-11-26T01:54:30.742Z,7.00
2018-11-26T01:56:58.699Z,6.90
2018-11-26T01:59:26.639Z,6.90
2018-11-26T02:01:54.546Z,6.90
2018-11-26T02:04:22.542Z,6.90
2018-11-26T02:06:50.434Z,6.90
2018-11-26T02:09:18.335Z,6.90
2018-11-26T02:11:46.307Z,6.90
2018-11-26T02:14:14.208Z,6.90
2018-11-26T02:16:42.143Z,6.90
2018-11-26T02:19:10.120Z,6.90
2018-11-26T02:21:38.097Z,6.90
2018-11-26T02:24:06.048Z,6.90
2018-11-26T02:26:33.965Z,6.90
2018-11-26T02:29:01.872Z,6.90
2018-11-26T02:31:29.885Z,6.90
2018-11-26T02:33:57.824Z,6.90
2018-11-26T02:36:25.787Z,6.90
2018-11-26T02:38:53.704Z,6.90
2018-11-26T02:41:21.632Z,6.90
2018-11-26T02:43:49.534Z,6.90
2018-11-26T02:46:17.471Z,6.90
2018-11-26T02:48:45.477Z,6.90
2018-11-26T02:51:13.391Z,6.90
2018-11-26T02:53:41.298Z,6.90
2018-11-26T02:56:09.308Z,6.90
2018-11-26T02:58:37.208Z,6.90
2018-11-26T03:01:06.399Z,6.90
2018-11-26T03:03:34.364Z,6.90
2018-11-26T03:06:02.280Z,6.90
2018-11-26T03:08:30.251Z,6.90
2018-11-26T03:10:58.161Z,6.90
2018-11-26T03:13:26.054Z,7.00
2018-11-26T03:15:53.958Z,6.90
2018-11-26T03:18:21.878Z,6.90
2018-11-26T03:20:49.808Z,7.00
2018-11-26T03:23:17.800Z,7.00
2018-11-26T03:25:45.728Z,7.00
2018-11-26T03:28:13.631Z,7.00
2018-11-26T03:30:41.534Z,7.00
2018-11-26T03:33:09.467Z,7.00
2018-11-26T03:35:37.394Z,7.00
2018-11-26T03:38:05.572Z,7.00
2018-11-26T03:40:33.592Z,7.00
2018-11-26T03:43:01.485Z,7.00
2018-11-26T03:45:29.829Z,7.00
2018-11-26T03:47:57.812Z,7.00
2018-11-26T03:50:25.728Z,7.00
2018-11-26T03:52:53.649Z,7.00
2018-11-26T03:55:21.963Z,7.00
2018-11-26T03:57:49.967Z,7.00
2018-11-26T04:00:17.882Z,7.00
2018-11-26T04:02:45.829Z,7.00
2018-11-26T04:05:13.768Z,7.00
2018-11-26T04:07:41.767Z,7.00
2018-11-26T04:10:11.292Z,7.00
2018-11-26T04:12:39.333Z,7.00
2018-11-26T04:15:10.089Z,7.00
2018-11-26T04:17:38.046Z,7.00
2018-11-26T04:20:07.059Z,7.00
2018-11-26T04:22:34.973Z,7.00
2018-11-26T04:25:02.955Z,7.00
2018-11-26T04:27:30.876Z,7.00
2018-11-26T04:29:58.779Z,7.00
2018-11-26T04:32:26.710Z,7.00
2018-11-26T04:34:54.596Z,7.00
2018-11-26T04:37:22.466Z,7.00
2018-11-26T04:39:50.392Z,7.00
2018-11-26T04:42:18.290Z,7.00
2018-11-26T04:44:46.252Z,7.00
2018-11-26T04:47:14.200Z,7.00
2018-11-26T04:49:42.099Z,7.00
2018-11-26T04:52:09.986Z,7.00
2018-11-26T04:54:37.959Z,7.00
2018-11-26T04:57:05.880Z,7.00
2018-11-26T04:59:33.889Z,7.00
2018-11-26T05:02:01.805Z,7.00
2018-11-26T05:04:29.716Z,7.00
2018-11-26T05:06:57.612Z,6.90
2018-11-26T05:09:25.547Z,6.90
2018-11-26T05:11:53.481Z,6.90
2018-11-26T05:14:21.366Z,6.90
2018-11-26T05:16:49.356Z,6.90
2018-11-26T05:19:17.240Z,6.90
2018-11-26T05:21:45.126Z,6.90
2018-11-26T05:24:13.061Z,6.90
2018-11-26T05:26:40.953Z,6.90
2018-11-26T05:29:08.835Z,6.90
2018-11-26T05:31:36.761Z,6.90
2018-11-26T05:34:04.985Z,6.90
2018-11-26T05:36:32.980Z,6.90
2018-11-26T05:39:00.902Z,6.90
2018-11-26T05:41:28.807Z,6.90
2018-11-26T05:43:56.703Z,6.90
2018-11-26T05:46:24.631Z,6.90
2018-11-26T05:48:52.603Z,6.90
2018-11-26T05:51:20.525Z,6.90
2018-11-26T05:53:48.463Z,6.90
2018-11-26T05:56:16.397Z,6.90
2018-11-26T05:58:44.285Z,6.90
2018-11-26T06:01:12.347Z,6.90
2018-11-26T06:03:40.303Z,6.90
2018-11-26T06:06:08.199Z,6.90
2018-11-26T06:08:36.136Z,6.90
2018-11-26T06:11:04.177Z,6.90
2018-11-26T06:13:32.079Z,6.80
2018-11-26T06:16:04.931Z,6.90
2018-11-26T06:18:32.820Z,6.80
2018-11-26T06:21:00.772Z,6.90
2018-11-26T06:23:29.455Z,6.80
2018-11-26T06:25:57.343Z,6.90
2018-11-26T06:28:25.237Z,6.90
2018-11-26T06:30:54.172Z,6.80
2018-11-26T06:33:27.892Z,6.90
2018-11-26T06:35:55.904Z,6.90
2018-11-26T06:38:23.799Z,6.90
2018-11-26T06:40:51.725Z,6.90
2018-11-26T06:43:19.664Z,6.90
2018-11-26T06:45:47.559Z,6.80
2018-11-26T06:48:15.451Z,6.80
2018-11-26T06:50:43.421Z,6.80
2018-11-26T06:53:11.455Z,6.80
2018-11-26T06:55:39.418Z,6.80
2018-11-26T06:58:07.384Z,6.70
2018-11-26T07:00:35.336Z,6.70
2018-11-26T07:03:04.224Z,6.60
2018-11-26T07:05:32.218Z,6.60
2018-11-26T07:08:00.108Z,6.60
2018-11-26T07:10:28.008Z,6.60
2018-11-26T07:12:55.964Z,6.50
2018-11-26T07:15:23.896Z,6.50
2018-11-26T07:17:51.836Z,6.50
2018-11-26T07:20:20.772Z,6.40
2018-11-26T07:22:48.760Z,6.40
2018-11-26T07:25:18.340Z,6.40
2018-11-26T07:27:48.068Z,6.40
2018-11-26T07:30:17.355Z,6.30
2018-11-26T07:32:45.264Z,6.30
2018-11-26T07:35:13.936Z,6.30
2018-11-26T07:37:42.105Z,6.20
2018-11-26T07:40:12.429Z,6.10
2018-11-26T07:42:42.139Z,6.10
2018-11-26T07:45:12.740Z,6.00
2018-11-26T07:47:40.676Z,6.00
2018-11-26T07:50:13.213Z,6.00
2018-11-26T07:52:41.471Z,5.90
2018-11-26T07:55:12.119Z,5.90
2018-11-26T07:57:40.158Z,5.90
2018-11-26T08:00:13.709Z,5.90
2018-11-26T08:02:42.321Z,5.90
2018-11-26T08:05:11.669Z,5.90
2018-11-26T08:07:39.624Z,5.80
2018-11-26T08:10:12.731Z,5.70
2018-11-26T08:12:40.804Z,5.70
2018-11-26T08:15:13.807Z,5.70
2018-11-26T08:17:42.215Z,5.60
2018-11-26T08:20:10.659Z,5.60
2018-11-26T08:22:38.659Z,5.60
2018-11-26T08:25:09.266Z,5.60
2018-11-26T08:27:37.259Z,5.60
2018-11-26T08:30:24.077Z,5.60
2018-11-26T08:32:54.407Z,5.60
2018-11-26T08:35:22.339Z,5.60
2018-11-26T08:37:55.826Z,5.60
2018-11-26T08:40:26.075Z,5.60
2018-11-26T08:42:57.800Z,5.60
2018-11-26T08:45:29.267Z,5.60
2018-11-26T08:48:00.261Z,5.60
2018-11-26T08:50:28.169Z,5.60
2018-11-26T08:52:56.073Z,5.60
2018-11-26T08:55:23.991Z,5.70
2018-11-26T08:57:51.918Z,5.70
2018-11-26T09:00:19.863Z,5.70
2018-11-26T09:02:48.689Z,5.70
2018-11-26T09:05:27.020Z,5.70
2018-11-26T09:07:55.032Z,5.70
2018-11-26T09:10:22.936Z,5.60
2018-11-26T09:12:50.843Z,5.70
2018-11-26T09:15:18.747Z,5.60
2018-11-26T09:17:46.645Z,5.70
2018-11-26T09:20:14.572Z,5.70
2018-11-26T09:22:42.517Z,5.70
2018-11-26T09:25:11.578Z,5.80
2018-11-26T09:27:39.594Z,5.80
2018-11-26T09:30:11.772Z,5.80
2018-11-26T09:32:40.396Z,5.90
2018-11-26T09:35:10.135Z,5.90
2018-11-26T09:37:38.120Z,5.90
2018-11-26T09:40:07.958Z,6.00
2018-11-26T09:42:35.904Z,6.00
2018-11-26T09:45:05.044Z,6.10
2018-11-26T09:47:32.994Z,6.10
2018-11-26T09:50:00.954Z,6.20
2018-11-26T09:52:28.892Z,6.20
2018-11-26T09:54:56.792Z,6.30
2018-11-26T09:57:24.675Z,6.40
2018-11-26T09:59:52.663Z,6.40
2018-11-26T10:02:20.608Z,6.50
2018-11-26T10:04:48.632Z,6.50
2018-11-26T10:07:16.633Z,6.60
2018-11-26T10:09:44.527Z,6.60
2018-11-26T10:12:12.423Z,6.70
2018-11-26T10:14:40.350Z,6.70
2018-11-26T10:17:08.236Z,6.80
2018-11-26T10:19:36.187Z,6.80
2018-11-26T10:22:04.266Z,6.90
2018-11-26T10:24:32.157Z,7.00
2018-11-26T10:27:00.093Z,7.00
2018-11-26T10:29:28.023Z,7.10
2018-11-26T10:31:56.173Z,7.20
2018-11-26T10:34:24.130Z,7.20
2018-11-26T10:36:52.145Z,7.30
2018-11-26T10:39:20.046Z,7.40
2018-11-26T10:41:47.932Z,7.40
2018-11-26T10:44:15.872Z,7.60
2018-11-26T10:46:43.814Z,7.60
2018-11-26T10:49:11.740Z,7.70
2018-11-26T10:51:39.703Z,7.90
2018-11-26T10:54:07.613Z,8.00
2018-11-26T10:56:35.516Z,8.10
2018-11-26T10:59:03.499Z,8.20
2018-11-26T11:01:38.722Z,8.20
2018-11-26T11:04:07.104Z,8.30
2018-11-26T11:06:35.022Z,8.30
2018-11-26T11:09:03.405Z,8.30
2018-11-26T11:11:31.372Z,8.40
2018-11-26T11:13:59.309Z,8.40
2018-11-26T11:16:27.202Z,8.40
2018-11-26T11:18:55.217Z,8.40
2018-11-26T11:21:23.131Z,8.30
2018-11-26T11:23:51.015Z,8.40
2018-11-26T11:26:18.951Z,8.30
2018-11-26T11:28:46.874Z,8.40
2018-11-26T11:31:14.785Z,8.40
2018-11-26T11:33:42.737Z,8.50
2018-11-26T11:36:10.653Z,8.50
2018-11-26T11:38:38.563Z,8.60
2018-11-26T11:41:06.597Z,8.60
2018-11-26T11:43:34.508Z,8.60
2018-11-26T11:46:02.398Z,8.60
2018-11-26T11:48:30.340Z,8.60
2018-11-26T11:50:58.248Z,8.70
2018-11-26T11:53:26.161Z,8.70
2018-11-26T11:55:54.177Z,8.70
2018-11-26T11:58:22.103Z,8.70
2018-11-26T12:00:50.418Z,8.80
2018-11-26T12:03:19.515Z,8.80
2018-11-26T12:05:47.473Z,8.80
2018-11-26T12:08:15.507Z,8.90
2018-11-26T12:10:47.205Z,8.90
2018-11-26T12:13:15.695Z,9.00
2018-11-26T12:15:47.241Z,9.00
2018-11-26T12:18:15.165Z,9.00
2018-11-26T12:20:43.081Z,9.00
2018-11-26T12:23:11.141Z,9.00
2018-11-26T12:25:39.044Z,9.10
2018-11-26T12:28:06.987Z,9.10
2018-11-26T12:30:36.998Z,9.10
2018-11-26T12:33:05.281Z,9.10
2018-11-26T12:35:33.205Z,9.20
2018-11-26T12:38:01.164Z,9.20
2018-11-26T12:40:29.084Z,9.20
2018-11-26T12:42:58.348Z,9.20
2018-11-26T12:45:34.029Z,9.30
2018-11-26T12:48:02.341Z,9.30
2018-11-26T12:50:30.253Z,9.30
2018-11-26T12:52:58.450Z,9.30
2018-11-26T12:55:26.318Z,9.30
2018-11-26T12:57:55.305Z,9.30
2018-11-26T13:00:28.160Z,9.30
2018-11-26T13:03:14.496Z,9.40
2018-11-26T13:05:42.448Z,9.40
2018-11-26T13:08:10.384Z,9.40
2018-11-26T13:10:38.783Z,9.40
2018-11-26T13:13:08.208Z,9.40
2018-11-26T13:15:36.909Z,9.40
2018-11-26T13:18:05.212Z,9.30
2018-11-26T13:20:33.322Z,9.30
2018-11-26T13:23:01.269Z,9.30
2018-11-26T13:25:32.017Z,9.30
2018-11-26T13:28:02.173Z,9.30
2018-11-26T13:30:34.629Z,9.20
2018-11-26T13:33:04.031Z,9.20
2018-11-26T13:35:31.954Z,9.20
2018-11-26T13:37:59.913Z,9.20
2018-11-26T13:40:28.469Z,9.10
2018-11-26T13:42:56.408Z,9.10
2018-11-26T13:45:28.165Z,9.00
2018-11-26T13:47:57.059Z,9.10
2018-11-26T13:50:30.756Z,9.00
2018-11-26T13:52:58.904Z,9.00
2018-11-26T13:55:26.728Z,9.00
2018-11-26T13:57:54.653Z,9.00
2018-11-26T14:00:23.578Z,9.00
2018-11-26T14:02:51.608Z,9.00
2018-11-26T14:05:19.652Z,9.00
2018-11-26T14:07:47.832Z,9.00
2018-11-26T14:10:18.075Z,8.90
2018-11-26T14:12:47.866Z,9.00
2018-11-26T14:15:15.864Z,9.00
2018-11-26T14:17:43.828Z,9.00
2018-11-26T14:20:14.048Z,9.00
2018-11-26T14:22:42.121Z,9.10
2018-11-26T14:25:16.068Z,9.10
2018-11-26T14:27:44.804Z,9.20
2018-11-26T14:30:16.664Z,9.20
2018-11-26T14:32:44.581Z,9.20
2018-11-26T14:35:12.559Z,9.20
2018-11-26T14:37:41.458Z,9.20
2018-11-26T14:40:14.224Z,9.20
2018-11-26T14:42:42.868Z,9.20
2018-11-26T14:45:12.910Z,9.20
2018-11-26T14:47:41.184Z,9.20
2018-11-26T14:50:12.366Z,9.20
2018-11-26T14:52:42.112Z,9.20
2018-11-26T14:55:18.509Z,9.20
2018-11-26T14:57:47.436Z,9.20
2018-11-26T15:00:17.378Z,9.20
2018-11-26T15:02:45.612Z,9.20
2018-11-26T15:05:13.802Z,9.10
2018-11-26T15:07:42.368Z,9.10
2018-11-26T15:10:26.753Z,9.20
2018-11-26T15:12:56.444Z,9.20
2018-11-26T15:15:26.480Z,9.20
2018-11-26T15:17:57.334Z,9.30
2018-11-26T15:20:27.838Z,9.30
2018-11-26T15:23:00.567Z,9.20
2018-11-26T15:25:33.405Z,9.20
2018-11-26T15:28:15.925Z,9.20
2018-11-26T15:30:43.932Z,9.20
2018-11-26T15:33:11.979Z,9.20
2018-11-26T15:35:39.903Z,9.10
2018-11-26T15:38:08.732Z,9.10
2018-11-26T15:40:38.582Z,9.10
2018-11-26T15:43:08.048Z,9.00
2018-11-26T15:45:37.313Z,9.10
2018-11-26T15:48:09.964Z,9.10
2018-11-26T15:50:37.994Z,9.10
2018-11-26T15:53:07.830Z,9.10
2018-11-26T15:55:36.595Z,9.00
2018-11-26T15:58:06.180Z,9.00
2018-11-26T16:00:34.146Z,8.90
2018-11-26T16:03:02.115Z,8.90
2018-11-26T16:05:34.023Z,8.80
2018-11-26T16:08:12.175Z,8.80
2018-11-26T16:10:44.805Z,8.70
2018-11-26T16:13:16.960Z,8.70
2018-11-26T16:15:46.105Z,8.70
2018-11-26T16:18:22.950Z,8.70
2018-11-26T16:20:53.240Z,8.70
2018-11-26T16:23:49.613Z,8.60
2018-11-26T16:26:22.317Z,8.60
2018-11-26T16:28:55.276Z,8.50
2018-11-26T16:31:25.039Z,8.50
2018-11-26T16:33:53.201Z,8.40
2018-11-26T16:36:22.018Z,8.40
2018-11-26T16:38:51.138Z,8.40
2018-11-26T16:41:23.334Z,8.30
2018-11-26T16:43:53.155Z,8.30
2018-11-26T16:46:23.233Z,8.30
2018-11-26T16:48:55.973Z,8.30
2018-11-26T16:51:27.905Z,8.20
2018-11-26T16:53:56.828Z,8.20
2018-11-26T16:56:26.869Z,8.20
2018-11-26T16:58:56.078Z,8.10
2018-11-26T17:01:26.749Z,8.10
2018-11-26T17:03:57.137Z,8.10
2018-11-26T17:06:25.581Z,8.00
2018-11-26T17:08:55.502Z,8.00
2018-11-26T17:11:25.724Z,7.90
2018-11-26T17:13:55.025Z,7.90
2018-11-26T17:16:23.483Z,7.80
2018-11-26T17:18:56.403Z,7.80
2018-11-26T17:21:39.002Z,7.70
2018-11-26T17:24:09.184Z,7.70
2018-11-26T17:26:38.169Z,7.60
2018-11-26T17:29:07.714Z,7.60
2018-11-26T17:31:51.002Z,7.50
2018-11-26T17:34:23.045Z,7.40
2018-11-26T17:36:53.095Z,7.40
2018-11-26T17:39:22.420Z,7.30
2018-11-26T17:41:50.983Z,7.30
2018-11-26T17:44:19.544Z,7.30
2018-11-26T17:46:48.127Z,7.30
2018-11-26T17:49:18.649Z,7.20
2018-11-26T17:51:47.643Z,7.20
2018-11-26T17:54:17.251Z,7.10
2018-11-26T17:56:48.308Z,7.10
2018-11-26T17:59:18.817Z,7.00
2018-11-26T18:01:47.933Z,7.00
2018-11-26T18:04:17.340Z,7.00
2018-11-26T18:06:47.572Z,7.00
2018-11-26T18:09:22.806Z,6.90
2018-11-26T18:11:49.063Z,6.90
2018-11-26T18:14:20.109Z,6.80
2018-11-26T18:16:49.713Z,6.80
2018-11-26T18:19:19.368Z,6.80
2018-11-26T18:21:49.505Z,6.80
2018-11-26T18:24:21.313Z,6.70
2018-11-26T18:26:53.582Z,6.70
2018-11-26T18:29:25.454Z,6.60
2018-11-26T18:31:55.714Z,6.60
2018-11-26T18:34:24.659Z,6.60
2018-11-26T18:36:58.368Z,6.50
2018-11-26T18:39:30.597Z,6.50
2018-11-26T18:42:03.411Z,6.40
2018-11-26T18:44:39.051Z,6.40
2018-11-26T18:47:09.412Z,6.30
2018-11-26T18:49:42.013Z,6.30
2018-11-26T18:52:12.564Z,6.30
2018-11-26T18:54:51.088Z,6.30
2018-11-26T18:57:24.227Z,6.20
2018-11-26T18:59:54.432Z,6.20
2018-11-26T19:02:28.663Z,6.20
2018-11-26T19:05:06.540Z,6.10
2018-11-26T19:07:38.746Z,6.10
2018-11-26T19:10:20.323Z,6.10
2018-11-26T19:13:02.169Z,6.10
2018-11-26T19:15:35.052Z,6.00
2018-11-26T19:18:43.221Z,6.00
2018-11-26T19:21:14.621Z,5.90
2018-11-26T19:23:47.379Z,5.90
2018-11-26T19:26:16.826Z,5.90
2018-11-26T19:28:51.628Z,5.80
2018-11-26T19:31:27.679Z,5.80
2018-11-26T19:33:58.399Z,5.80
2018-11-26T19:36:27.714Z,5.70
2018-11-26T19:38:57.324Z,5.60
2018-11-26T19:41:28.203Z,5.60
2018-11-26T19:43:58.932Z,5.60
2018-11-26T19:46:28.361Z,5.60
2018-11-26T19:48:58.841Z,5.50
2018-11-26T19:51:31.501Z,5.50
2018-11-26T19:54:03.270Z,5.40
2018-11-26T19:56:36.622Z,5.40
2018-11-26T19:59:06.681Z,5.40
2018-11-26T20:01:40.314Z,5.30
2018-11-26T20:04:30.538Z,5.30
2018-11-26T20:07:00.876Z,5.30
2018-11-26T20:09:34.410Z,5.30
2018-11-26T20:12:04.125Z,5.30
2018-11-26T20:14:33.887Z,5.20
2018-11-26T20:17:04.177Z,5.20
2018-11-26T20:19:38.410Z,5.20
2018-11-26T20:22:07.337Z,5.20
2018-11-26T20:24:40.068Z,5.10
2018-11-26T20:27:13.661Z,5.10
2018-11-26T20:29:43.006Z,5.10
2018-11-26T20:32:15.130Z,5.00
2018-11-26T20:34:47.192Z,5.00
2018-11-26T20:37:17.449Z,4.90
2018-11-26T20:39:46.840Z,4.90
2018-11-26T20:42:16.571Z,4.90
2018-11-26T20:44:47.088Z,4.80
2018-11-26T20:47:16.778Z,4.80
2018-11-26T20:49:46.356Z,4.80
2018-11-26T20:52:15.728Z,4.80
2018-11-26T20:54:49.739Z,4.80
2018-11-26T20:57:21.101Z,4.80
2018-11-26T20:59:52.571Z,4.70
2018-11-26T21:02:21.312Z,4.70
2018-11-26T21:04:52.616Z,4.70
2018-11-26T21:07:22.223Z,4.70
2018-11-26T21:09:52.495Z,4.70
2018-11-26T21:12:22.391Z,4.60
2018-11-26T21:14:54.303Z,4.60
2018-11-26T21:17:25.313Z,4.60
2018-11-26T21:20:00.596Z,4.50
2018-11-26T21:22:32.755Z,4.50
2018-11-26T21:25:02.099Z,4.50
2018-11-26T21:27:39.569Z,4.50
2018-11-26T21:30:11.809Z,4.40
2018-11-26T21:32:42.325Z,4.50
2018-11-26T21:35:12.837Z,4.50
2018-11-26T21:37:47.995Z,4.40
2018-11-26T21:40:20.438Z,4.40
2018-11-26T21:42:47.196Z,4.40
2018-11-26T21:45:25.644Z,4.40
2018-11-26T21:47:56.204Z,4.40
2018-11-26T21:50:28.723Z,4.50
2018-11-26T21:53:04.393Z,4.50
2018-11-26T21:55:35.014Z,4.50
2018-11-26T21:58:10.023Z,4.50
2018-11-26T22:00:42.220Z,4.50
2018-11-26T22:03:13.440Z,4.50
2018-11-26T22:05:45.736Z,4.50
2018-11-26T22:08:16.249Z,4.50
2018-11-26T22:10:46.650Z,4.50
2018-11-26T22:13:20.897Z,4.50
2018-11-26T22:15:49.833Z,4.50
2018-11-26T22:18:20.069Z,4.50
2018-11-26T22:20:50.430Z,4.50
2018-11-26T22:23:19.961Z,4.50
2018-11-26T22:25:49.576Z,4.50
2018-11-26T22:28:19.099Z,4.50
2018-11-26T22:30:47.924Z,4.50
2018-11-26T22:33:17.555Z,4.50
2018-11-26T22:35:48.247Z,4.50
2018-11-26T22:38:16.796Z,4.50
2018-11-26T22:40:44.784Z,4.50
2018-11-26T22:43:13.241Z,4.60
2018-11-26T22:45:41.165Z,4.50
2018-11-26T22:48:11.843Z,4.50
2018-11-26T22:50:43.514Z,4.50
2018-11-26T22:53:11.550Z,4.40
2018-11-26T22:55:39.574Z,4.40
2018-11-26T22:58:14.237Z,4.40
2018-11-26T23:00:50.914Z,4.30
2018-11-26T23:03:21.132Z,4.30
2018-11-26T23:05:55.154Z,4.20
2018-11-26T23:08:23.770Z,4.20
2018-11-26T23:10:54.233Z,4.10
2018-11-26T23:13:22.709Z,4.10
2018-11-26T23:15:52.762Z,4.10
2018-11-26T23:18:20.810Z,4.10
2018-11-26T23:20:49.454Z,4.10
2018-11-26T23:23:18.154Z,4.00
2018-11-26T23:25:46.156Z,4.00
2018-11-26T23:28:14.137Z,4.00
2018-11-26T23:30:42.078Z,3.90
2018-11-26T23:33:10.086Z,4.00
2018-11-26T23:35:38.049Z,3.90
2018-11-26T23:38:06.090Z,3.90
2018-11-26T23:40:34.789Z,3.80
2018-11-26T23:43:02.712Z,3.80
2018-11-26T23:45:30.712Z,3.80
2018-11-26T23:47:58.655Z,3.90
2018-11-26T23:50:26.619Z,3.80
2018-11-26T23:52:54.596Z,3.80
2018-11-26T23:55:23.490Z,3.70
2018-11-26T23:57:51.477Z,3.80
